Courtenay, Canada
Current Conditions -  °F | °C
As of 8:00 PM on Thursday 18 Dec 2014 (Local Time) from CYQQ Reporting Station
Rain Showers Rain Showers  
Wind Chill: 39°   Ceiling: 3600
Heat Index: 46°   Visibility: 8mi
Dew Point: 46°   Wind: 18mph
Humidity: 100%   Direction: 150°SSE
Pressure: 29.58"   Gusts: 25mph
Location:  49.69°N, 124.99°W
Report Text: CYQQ 190400Z 15016G22KT 8SM -SHRA FEW008 SCT012 OVC036 08/08 A2958 RMK SF2SF2SC4 SLP018
Loading
Personal Weather Stations






























Interactive Weather Map New forecast layout! Learn more

10-Day Weather Forecast

Advertisements
Track Severe Weather on mobile